Arctic Bay, Canada
Current Conditions -  °F | °C
As of 3:00 PM on Friday 28 Nov 2014 (Local Time) from CYAB Reporting Station
Broken Clouds Broken Clouds  
Wind Chill: -18°   Ceiling: 16000
Heat Index: -18°   Visibility: 15mi
Dew Point: -26°   Wind: 2mph
Humidity: 70%   Direction: 280°W
Pressure: 29.53"   Gusts: NA
Location:  73.03°N, 85.17°W
Report Text: CYAB 282100Z 28002KT 15SM FEW100 BKN160 M28/M32 A2953 RMK AC2AC4 -27.3/-29.4/0.0/9 MEDIUM PACK LAST STFD OBS/NXT 291800Z SLP002
Loading
Personal Weather Stations






























Interactive Weather Map New forecast layout! Learn more

10-Day Weather Forecast

Advertisements
Track Severe Weather on mobile